createdAt,value
2023-04-20T00:02:07.743Z,10.57
2023-04-20T00:04:35.001Z,10.93
2023-04-20T00:07:02.190Z,11.45
2023-04-20T00:09:29.307Z,11.02
2023-04-20T00:11:56.576Z,11.98
2023-04-20T00:14:23.671Z,10.13
2023-04-20T00:16:51.406Z,11.98
2023-04-20T00:19:18.789Z,10.32
2023-04-20T00:21:46.542Z,11.32
2023-04-20T00:24:13.680Z,11.32
2023-04-20T00:26:40.788Z,10.68
2023-04-20T00:29:07.843Z,10.45
2023-04-20T00:31:34.875Z,8.75
2023-04-20T00:34:01.938Z,8.82
2023-04-20T00:36:30.134Z,8.98
2023-04-20T00:38:59.710Z,8.88
2023-04-20T00:41:28.887Z,9.73
2023-04-20T00:43:56.188Z,12.85
2023-04-20T00:46:23.632Z,9.43
2023-04-20T00:48:54.258Z,9.55
2023-04-20T00:51:22.651Z,9.90
2023-04-20T00:53:49.866Z,10.85
2023-04-20T00:56:17.178Z,7.80
2023-04-20T00:58:44.269Z,8.30
2023-04-20T01:01:12.952Z,7.63
2023-04-20T01:03:40.762Z,7.25
2023-04-20T01:06:09.049Z,7.57
2023-04-20T01:08:36.183Z,7.57
2023-04-20T01:11:04.427Z,7.60
2023-04-20T01:13:31.658Z,6.55
2023-04-20T01:16:00.649Z,6.63
2023-04-20T01:18:27.912Z,7.03
2023-04-20T01:20:55.078Z,7.38
2023-04-20T01:23:22.288Z,7.25
2023-04-20T01:25:49.437Z,8.30
2023-04-20T01:28:19.593Z,10.88
2023-04-20T01:30:46.869Z,7.75
2023-04-20T01:33:13.924Z,7.07
2023-04-20T01:35:43.401Z,7.18
2023-04-20T01:38:10.551Z,6.88
2023-04-20T01:40:39.589Z,6.40
2023-04-20T01:43:06.917Z,5.88
2023-04-20T01:45:34.261Z,5.60
2023-04-20T01:48:01.798Z,5.55
2023-04-20T01:50:29.078Z,5.75
2023-04-20T01:52:56.248Z,5.40
2023-04-20T01:55:23.288Z,5.03
2023-04-20T01:57:52.771Z,5.90
2023-04-20T02:00:20.073Z,5.38
2023-04-20T02:02:47.254Z,6.15
2023-04-20T02:05:16.004Z,11.27
2023-04-20T02:07:43.398Z,11.75
2023-04-20T02:10:11.066Z,13.15
2023-04-20T02:12:38.701Z,12.88
2023-04-20T02:15:07.027Z,13.50
2023-04-20T02:17:34.233Z,14.57
2023-04-20T02:20:01.314Z,13.52
2023-04-20T02:22:28.453Z,12.40
2023-04-20T02:24:55.495Z,12.85
2023-04-20T02:27:22.611Z,12.65
2023-04-20T02:29:49.664Z,11.45
2023-04-20T02:32:16.895Z,11.25
2023-04-20T02:34:43.988Z,9.50
2023-04-20T02:37:11.105Z,8.77
2023-04-20T02:39:38.165Z,6.22
2023-04-20T02:42:05.966Z,7.15
2023-04-20T02:44:33.744Z,5.50
2023-04-20T02:47:01.892Z,5.10
2023-04-20T02:49:29.768Z,6.07
2023-04-20T02:51:57.816Z,4.97
2023-04-20T02:54:25.015Z,3.90
2023-04-20T02:56:52.324Z,4.75
2023-04-20T02:59:19.575Z,4.57
2023-04-20T03:02:07.166Z,5.07
2023-04-20T03:04:34.582Z,4.53
2023-04-20T03:07:16.649Z,4.63
2023-04-20T03:09:44.368Z,13.23
2023-04-20T03:12:24.933Z,12.18
2023-04-20T03:14:58.320Z,13.05
2023-04-20T03:17:38.316Z,14.25
2023-04-20T03:20:09.269Z,12.73
2023-04-20T03:22:37.363Z,11.90
2023-04-20T03:25:06.586Z,15.10
2023-04-20T03:27:55.449Z,20.23
2023-04-20T03:30:22.551Z,18.95
2023-04-20T03:32:55.819Z,17.00
2023-04-20T03:35:23.120Z,18.95
2023-04-20T03:37:50.367Z,17.75
2023-04-20T03:40:17.503Z,18.83
2023-04-20T03:42:44.578Z,18.25
2023-04-20T03:45:12.193Z,15.50
2023-04-20T03:47:39.335Z,14.35
2023-04-20T03:50:07.107Z,13.82
2023-04-20T03:52:34.390Z,12.57
2023-04-20T03:55:05.351Z,13.00
2023-04-20T03:57:34.113Z,12.35
2023-04-20T04:00:04.793Z,10.75
2023-04-20T04:02:45.843Z,9.35
2023-04-20T04:05:16.068Z,9.40
2023-04-20T04:07:43.206Z,9.75
2023-04-20T04:10:12.068Z,8.90
2023-04-20T04:12:39.561Z,7.95
2023-04-20T04:15:08.210Z,7.70
2023-04-20T04:17:41.451Z,7.93
2023-04-20T04:20:09.280Z,6.53
2023-04-20T04:22:37.308Z,8.40
2023-04-20T04:25:23.443Z,7.70
2023-04-20T04:27:51.576Z,7.30
2023-04-20T04:30:20.098Z,7.40
2023-04-20T04:32:49.266Z,6.47
2023-04-20T04:35:17.258Z,6.85
2023-04-20T04:37:44.377Z,7.30
2023-04-20T04:40:11.820Z,7.38
2023-04-20T04:42:39.619Z,7.22
2023-04-20T04:45:10.488Z,6.40
2023-04-20T04:47:43.920Z,8.02
2023-04-20T04:50:11.679Z,8.38
2023-04-20T04:52:38.978Z,9.98
2023-04-20T04:55:09.211Z,9.20
2023-04-20T04:57:36.476Z,7.13
2023-04-20T05:00:08.067Z,6.82
2023-04-20T05:02:35.986Z,6.97
2023-04-20T05:05:03.422Z,6.05
2023-04-20T05:07:30.771Z,6.00
2023-04-20T05:09:57.811Z,5.93
2023-04-20T05:12:25.918Z,7.57
2023-04-20T05:14:53.574Z,7.57
2023-04-20T05:17:20.926Z,8.18
2023-04-20T05:19:48.072Z,7.45
2023-04-20T05:22:15.481Z,8.20
2023-04-20T05:24:42.648Z,7.97
2023-04-20T05:27:09.801Z,8.20
2023-04-20T05:29:38.152Z,9.05
2023-04-20T05:32:05.496Z,10.25
2023-04-20T05:34:32.735Z,11.35
2023-04-20T05:37:00.140Z,10.45
2023-04-20T05:39:27.293Z,10.63
2023-04-20T05:41:54.351Z,11.70
2023-04-20T05:44:21.409Z,12.23
2023-04-20T05:46:48.493Z,12.70
2023-04-20T05:49:15.968Z,12.27
2023-04-20T05:51:43.191Z,13.70
2023-04-20T05:54:11.227Z,13.02
2023-04-20T05:56:38.407Z,14.77
2023-04-20T05:59:05.691Z,13.63
2023-04-20T06:01:32.809Z,14.23
2023-04-20T06:04:00.136Z,14.60
2023-04-20T06:06:28.088Z,12.98
2023-04-20T06:08:55.329Z,13.48
2023-04-20T06:11:22.509Z,13.90
2023-04-20T06:13:49.581Z,12.95
2023-04-20T06:16:16.801Z,11.73
2023-04-20T06:18:44.201Z,11.40
2023-04-20T06:21:11.627Z,10.95
2023-04-20T06:23:38.874Z,9.88
2023-04-20T06:26:08.892Z,9.15
2023-04-20T06:28:39.366Z,9.07
2023-04-20T06:31:06.671Z,9.25
2023-04-20T06:33:33.991Z,8.73
2023-04-20T06:36:01.130Z,8.10
2023-04-20T06:38:28.442Z,8.20
2023-04-20T06:40:57.623Z,8.00
2023-04-20T06:43:24.751Z,8.90
2023-04-20T06:45:51.850Z,7.72
2023-04-20T06:48:31.406Z,7.75
2023-04-20T06:50:59.616Z,7.43
2023-04-20T06:53:26.683Z,7.22
2023-04-20T06:55:57.130Z,8.43
2023-04-20T06:58:24.468Z,7.63
2023-04-20T07:00:51.548Z,7.63
2023-04-20T07:03:19.514Z,7.05
2023-04-20T07:05:47.043Z,8.50
2023-04-20T07:08:16.147Z,7.05
2023-04-20T07:10:43.484Z,7.65
2023-04-20T07:13:10.722Z,7.78
2023-04-20T07:15:37.928Z,8.43
2023-04-20T07:18:05.098Z,7.38
2023-04-20T07:20:32.496Z,7.25
2023-04-20T07:22:59.696Z,6.80
2023-04-20T07:25:27.432Z,7.35
2023-04-20T07:27:54.585Z,8.65
2023-04-20T07:30:21.699Z,8.02
2023-04-20T07:32:49.468Z,7.93
2023-04-20T07:35:16.704Z,8.65
2023-04-20T07:37:43.970Z,9.10
2023-04-20T07:40:11.497Z,9.38
2023-04-20T07:42:38.655Z,9.55
2023-04-20T07:45:07.192Z,9.52
2023-04-20T07:47:35.590Z,10.00
2023-04-20T07:50:03.845Z,9.48
2023-04-20T07:52:31.011Z,9.30
2023-04-20T07:54:59.469Z,9.43
2023-04-20T07:57:27.412Z,8.85
2023-04-20T07:59:54.513Z,9.98
2023-04-20T08:02:21.678Z,10.73
2023-04-20T08:04:50.024Z,10.60
2023-04-20T08:07:17.962Z,10.68
2023-04-20T08:09:45.262Z,11.23
2023-04-20T08:12:12.409Z,9.45
2023-04-20T08:14:40.655Z,8.43
2023-04-20T08:17:08.562Z,6.93
2023-04-20T08:19:36.279Z,8.25
2023-04-20T08:22:04.549Z,6.88
2023-04-20T08:24:31.958Z,7.10
2023-04-20T08:26:59.470Z,5.90
2023-04-20T08:29:26.804Z,6.22
2023-04-20T08:31:53.927Z,7.03
2023-04-20T08:34:21.058Z,5.90
2023-04-20T08:36:48.328Z,5.97
2023-04-20T08:39:20.731Z,6.07
2023-04-20T08:41:48.245Z,6.00
2023-04-20T08:44:15.708Z,6.22
2023-04-20T08:46:47.192Z,6.25
2023-04-20T08:49:17.976Z,5.40
2023-04-20T08:51:46.513Z,4.75
2023-04-20T08:54:14.597Z,4.32
2023-04-20T08:56:46.768Z,3.65
2023-04-20T08:59:14.709Z,5.28
2023-04-20T09:01:43.266Z,3.08
2023-04-20T09:04:21.373Z,2.83
2023-04-20T09:06:51.575Z,4.55
2023-04-20T09:09:20.200Z,4.03
2023-04-20T09:11:48.044Z,4.88
2023-04-20T09:14:17.194Z,5.13
2023-04-20T09:17:02.009Z,4.32
2023-04-20T09:19:30.710Z,4.40
2023-04-20T09:21:59.916Z,4.43
2023-04-20T09:24:35.317Z,3.20
2023-04-20T09:27:14.634Z,3.30
2023-04-20T09:29:41.841Z,3.28
2023-04-20T09:32:09.110Z,2.50
2023-04-20T09:34:45.728Z,1.60
2023-04-20T09:37:16.718Z,1.90
2023-04-20T09:39:45.676Z,1.70
2023-04-20T09:42:14.057Z,1.90
2023-04-20T09:44:41.515Z,2.10
2023-04-20T09:47:09.804Z,2.80
2023-04-20T09:49:45.860Z,3.03
2023-04-20T09:52:16.261Z,3.65
2023-04-20T09:54:44.805Z,3.38
2023-04-20T09:57:13.389Z,4.40
2023-04-20T09:59:43.829Z,4.68
2023-04-20T10:02:12.692Z,3.60
2023-04-20T10:04:55.795Z,3.97
2023-04-20T10:07:27.395Z,3.70
2023-04-20T10:10:24.205Z,4.72
2023-04-20T10:12:53.577Z,4.60
2023-04-20T10:15:24.485Z,4.63
2023-04-20T10:17:51.783Z,4.03
2023-04-20T10:20:21.539Z,4.03
2023-04-20T10:22:48.749Z,4.30
2023-04-20T10:25:19.532Z,3.80
2023-04-20T10:27:58.039Z,3.85
2023-04-20T10:30:27.136Z,3.08
2023-04-20T10:33:07.025Z,3.33
2023-04-20T10:35:55.320Z,3.42
2023-04-20T10:38:36.148Z,2.97
2023-04-20T10:41:13.502Z,3.53
2023-04-20T10:43:43.720Z,3.28
2023-04-20T10:46:15.478Z,3.45
2023-04-20T10:49:01.442Z,3.17
2023-04-20T10:51:28.775Z,2.50
2023-04-20T10:54:06.841Z,4.05
2023-04-20T10:56:55.337Z,3.33
2023-04-20T10:59:25.084Z,3.45
2023-04-20T11:01:52.670Z,4.60
2023-04-20T11:04:31.281Z,4.90
2023-04-20T11:07:07.295Z,4.10
2023-04-20T11:09:35.837Z,4.07
2023-04-20T11:12:08.212Z,3.70
2023-04-20T11:14:38.462Z,3.95
2023-04-20T11:17:06.567Z,3.95
2023-04-20T11:19:35.963Z,3.85
2023-04-20T11:22:06.730Z,4.03
2023-04-20T11:24:35.955Z,3.15
2023-04-20T11:27:05.052Z,3.00
2023-04-20T11:29:34.258Z,4.20
2023-04-20T11:32:09.775Z,3.95
2023-04-20T11:34:38.673Z,3.83
2023-04-20T11:37:11.111Z,3.80
2023-04-20T11:39:38.558Z,3.17
2023-04-20T11:42:06.565Z,3.85
2023-04-20T11:44:36.759Z,3.25
2023-04-20T11:47:04.149Z,3.22
2023-04-20T11:49:31.576Z,2.75
2023-04-20T11:51:58.770Z,3.47
2023-04-20T11:54:27.438Z,3.40
2023-04-20T11:56:54.511Z,2.53
2023-04-20T11:59:21.958Z,3.10
2023-04-20T12:01:49.058Z,3.03
2023-04-20T12:04:16.635Z,2.63
2023-04-20T12:06:44.212Z,2.78
2023-04-20T12:09:11.462Z,3.20
2023-04-20T12:11:38.575Z,2.35
2023-04-20T12:14:05.737Z,2.28
2023-04-20T12:16:32.919Z,2.20
2023-04-20T12:19:00.122Z,3.33
2023-04-20T12:21:27.520Z,2.35
2023-04-20T12:23:54.592Z,2.63
2023-04-20T12:26:23.771Z,2.50
2023-04-20T12:28:54.213Z,2.30
2023-04-20T12:31:21.598Z,2.53
2023-04-20T12:33:48.672Z,2.20
2023-04-20T12:36:15.737Z,2.38
2023-04-20T12:38:42.920Z,2.15
2023-04-20T12:41:14.877Z,1.77
2023-04-20T12:43:42.024Z,1.92
2023-04-20T12:46:09.146Z,2.05
2023-04-20T12:48:36.314Z,2.30
2023-04-20T12:51:03.696Z,2.00
2023-04-20T12:53:30.826Z,2.38
2023-04-20T12:56:01.357Z,2.28
2023-04-20T12:58:28.861Z,2.53
2023-04-20T13:00:56.324Z,2.17
2023-04-20T13:03:23.842Z,2.75
2023-04-20T13:05:51.320Z,2.22
2023-04-20T13:08:19.893Z,2.25
2023-04-20T13:10:47.151Z,2.30
2023-04-20T13:13:14.319Z,2.72
2023-04-20T13:15:41.481Z,2.08
2023-04-20T13:18:10.011Z,2.33
2023-04-20T13:20:37.427Z,2.58
2023-04-20T13:23:04.759Z,2.60
2023-04-20T13:25:33.566Z,2.60
2023-04-20T13:28:02.105Z,2.10
2023-04-20T13:30:29.403Z,2.85
2023-04-20T13:32:56.612Z,3.53
2023-04-20T13:35:24.567Z,3.22
2023-04-20T13:37:51.895Z,3.03
2023-04-20T13:40:19.020Z,2.45
2023-04-20T13:42:46.103Z,2.97
2023-04-20T13:45:13.624Z,2.30
2023-04-20T13:47:41.047Z,2.70
2023-04-20T13:50:09.491Z,2.80
2023-04-20T13:52:37.365Z,3.00
2023-04-20T13:55:05.539Z,2.33
2023-04-20T13:57:32.782Z,2.60
2023-04-20T14:00:01.299Z,2.72
2023-04-20T14:02:33.431Z,3.50
2023-04-20T14:05:00.938Z,2.35
2023-04-20T14:07:27.992Z,2.92
2023-04-20T14:09:56.701Z,2.92
2023-04-20T14:12:24.026Z,2.63
2023-04-20T14:14:51.219Z,2.22
2023-04-20T14:17:18.320Z,2.63
2023-04-20T14:19:45.597Z,2.63
2023-04-20T14:22:12.667Z,3.22
2023-04-20T14:24:40.834Z,3.03
2023-04-20T14:27:07.925Z,2.00
2023-04-20T14:29:34.983Z,1.65
2023-04-20T14:32:02.107Z,1.30
2023-04-20T14:34:29.213Z,0.93
2023-04-20T14:36:56.366Z,0.93
2023-04-20T14:39:26.531Z,0.70
2023-04-20T14:41:53.709Z,1.02
2023-04-20T14:44:20.947Z,0.50
2023-04-20T14:46:48.249Z,0.40
2023-04-20T14:49:15.517Z,0.50
2023-04-20T14:51:42.636Z,0.50
2023-04-20T14:54:09.771Z,0.40
2023-04-20T14:56:36.881Z,0.43
2023-04-20T14:59:04.008Z,0.85
2023-04-20T15:01:31.112Z,0.45
2023-04-20T15:03:58.521Z,0.30
2023-04-20T15:06:25.874Z,0.77
2023-04-20T15:08:54.730Z,0.50
2023-04-20T15:11:21.970Z,0.70
2023-04-20T15:13:49.580Z,0.60
2023-04-20T15:16:16.786Z,0.73
2023-04-20T15:18:43.896Z,0.60
2023-04-20T15:21:11.143Z,0.90
2023-04-20T15:23:38.310Z,0.47
2023-04-20T15:26:06.984Z,0.85
2023-04-20T15:28:34.037Z,0.60
2023-04-20T15:31:01.112Z,0.98
2023-04-20T15:33:28.192Z,0.75
2023-04-20T15:35:55.353Z,1.17
2023-04-20T15:38:22.468Z,0.93
2023-04-20T15:40:54.265Z,0.88
2023-04-20T15:43:21.794Z,1.27
2023-04-20T15:45:50.025Z,1.00
2023-04-20T15:48:17.806Z,1.00
2023-04-20T15:50:44.994Z,1.02
2023-04-20T15:53:12.432Z,1.20
2023-04-20T15:55:39.776Z,1.40
2023-04-20T15:58:06.934Z,1.50
2023-04-20T16:00:34.011Z,1.33
2023-04-20T16:03:02.271Z,1.55
2023-04-20T16:05:29.688Z,1.50
2023-04-20T16:07:56.949Z,1.73
2023-04-20T16:10:24.438Z,1.50
2023-04-20T16:12:51.548Z,1.27
2023-04-20T16:15:18.877Z,1.77
2023-04-20T16:17:46.197Z,1.95
2023-04-20T16:20:14.031Z,1.40
2023-04-20T16:22:41.233Z,1.70
2023-04-20T16:25:09.731Z,1.60
2023-04-20T16:27:36.946Z,1.55
2023-04-20T16:30:04.455Z,1.65
2023-04-20T16:32:31.664Z,1.92
2023-04-20T16:34:58.806Z,1.60
2023-04-20T16:37:26.048Z,1.55
2023-04-20T16:39:53.075Z,1.80
2023-04-20T16:42:20.171Z,1.88
2023-04-20T16:44:47.247Z,1.88
2023-04-20T16:47:14.294Z,1.90
2023-04-20T16:49:41.418Z,1.50
2023-04-20T16:52:10.608Z,1.70
2023-04-20T16:54:37.703Z,1.85
2023-04-20T16:57:04.771Z,2.10
2023-04-20T16:59:31.889Z,2.78
2023-04-20T17:01:59.086Z,2.00
2023-04-20T17:04:26.331Z,1.95
2023-04-20T17:06:53.605Z,2.20
2023-04-20T17:09:21.194Z,2.75
2023-04-20T17:11:48.457Z,2.45
2023-04-20T17:14:16.209Z,2.50
2023-04-20T17:16:43.430Z,2.70
2023-04-20T17:19:10.559Z,2.78
2023-04-20T17:21:37.952Z,2.92
2023-04-20T17:24:05.156Z,3.38
2023-04-20T17:26:32.213Z,4.18
2023-04-20T17:28:59.339Z,2.60
2023-04-20T17:31:26.637Z,2.60
2023-04-20T17:33:53.820Z,3.22
2023-04-20T17:36:20.977Z,2.45
2023-04-20T17:38:48.138Z,3.75
2023-04-20T17:41:15.297Z,2.90
2023-04-20T17:43:42.389Z,3.08
2023-04-20T17:46:09.597Z,2.42
2023-04-20T17:48:36.758Z,2.53
2023-04-20T17:51:04.045Z,3.30
2023-04-20T17:53:31.127Z,2.55
2023-04-20T17:55:58.154Z,2.97
2023-04-20T17:58:25.257Z,3.17
2023-04-20T18:00:52.345Z,3.17
2023-04-20T18:03:20.276Z,3.42
2023-04-20T18:05:47.518Z,3.65
2023-04-20T18:08:15.647Z,3.75
2023-04-20T18:10:42.709Z,3.65
2023-04-20T18:13:10.107Z,3.78
2023-04-20T18:15:37.239Z,4.97
2023-04-20T18:18:04.496Z,3.58
2023-04-20T18:20:32.602Z,4.75
2023-04-20T18:22:59.857Z,4.20
2023-04-20T18:25:27.106Z,4.20
2023-04-20T18:27:54.263Z,5.82
2023-04-20T18:30:21.462Z,3.75
2023-04-20T18:32:48.655Z,4.38
2023-04-20T18:35:15.877Z,3.47
2023-04-20T18:37:42.997Z,3.67
2023-04-20T18:40:10.572Z,3.78
2023-04-20T18:42:37.698Z,4.40
2023-04-20T18:45:06.311Z,4.10
2023-04-20T18:47:33.854Z,3.28
2023-04-20T18:50:01.021Z,5.70
2023-04-20T18:52:28.177Z,4.10
2023-04-20T18:54:55.606Z,3.90
2023-04-20T18:57:26.344Z,4.30
2023-04-20T18:59:53.572Z,4.28
2023-04-20T19:02:20.907Z,4.38
2023-04-20T19:04:48.097Z,4.20
2023-04-20T19:07:15.348Z,5.85
2023-04-20T19:09:42.602Z,4.82
2023-04-20T19:12:09.817Z,4.80
2023-04-20T19:14:37.083Z,7.03
2023-04-20T19:17:06.628Z,4.18
2023-04-20T19:19:33.990Z,4.47
2023-04-20T19:22:01.889Z,5.35
2023-04-20T19:24:29.299Z,4.88
2023-04-20T19:26:56.389Z,4.05
2023-04-20T19:29:23.476Z,4.03
2023-04-20T19:31:50.589Z,3.67
2023-04-20T19:34:18.016Z,4.32
2023-04-20T19:36:45.421Z,4.65
2023-04-20T19:39:12.521Z,3.53
2023-04-20T19:41:39.674Z,4.43
2023-04-20T19:44:06.807Z,5.10
2023-04-20T19:46:34.269Z,3.95
2023-04-20T19:49:01.590Z,4.40
2023-04-20T19:51:29.084Z,4.72
2023-04-20T19:53:56.605Z,5.95
2023-04-20T19:56:23.664Z,5.53
2023-04-20T19:58:50.720Z,5.63
2023-04-20T20:01:18.179Z,5.53
2023-04-20T20:03:45.443Z,4.45
2023-04-20T20:06:12.721Z,4.70
2023-04-20T20:08:39.932Z,3.90
2023-04-20T20:11:07.111Z,4.32
2023-04-20T20:13:34.161Z,4.45
2023-04-20T20:16:01.276Z,5.28
2023-04-20T20:18:28.419Z,4.47
2023-04-20T20:20:55.517Z,4.80
2023-04-20T20:23:22.679Z,4.38
2023-04-20T20:25:49.753Z,4.25
2023-04-20T20:28:16.830Z,4.35
2023-04-20T20:30:45.451Z,4.00
2023-04-20T20:33:13.200Z,3.90
2023-04-20T20:35:40.986Z,3.80
2023-04-20T20:38:08.933Z,4.25
2023-04-20T20:40:36.211Z,4.00
2023-04-20T20:43:06.609Z,4.18
2023-04-20T20:45:33.738Z,3.53
2023-04-20T20:48:01.246Z,4.20
2023-04-20T20:50:28.489Z,4.72
2023-04-20T20:52:55.534Z,4.70
2023-04-20T20:55:22.690Z,4.18
2023-04-20T20:57:49.764Z,5.40
2023-04-20T21:00:17.017Z,5.20
2023-04-20T21:02:44.640Z,6.25
2023-04-20T21:05:11.860Z,4.53
2023-04-20T21:07:39.429Z,4.75
2023-04-20T21:10:06.911Z,4.20
2023-04-20T21:12:34.131Z,3.83
2023-04-20T21:15:01.363Z,4.13
2023-04-20T21:17:28.598Z,5.03
2023-04-20T21:19:55.681Z,5.25
2023-04-20T21:22:23.306Z,5.05
2023-04-20T21:24:50.638Z,4.65
2023-04-20T21:27:17.732Z,5.38
2023-04-20T21:29:44.778Z,5.15
2023-04-20T21:32:11.852Z,4.70
2023-04-20T21:34:38.996Z,4.35
2023-04-20T21:37:06.153Z,6.75
2023-04-20T21:39:33.525Z,5.13
2023-04-20T21:42:01.583Z,4.72
2023-04-20T21:44:28.917Z,4.72
2023-04-20T21:46:56.064Z,4.65
2023-04-20T21:49:23.299Z,5.68
2023-04-20T21:51:50.326Z,4.63
2023-04-20T21:54:17.376Z,5.20
2023-04-20T21:56:44.539Z,4.50
2023-04-20T21:59:11.595Z,5.45
2023-04-20T22:01:38.855Z,5.05
2023-04-20T22:04:06.160Z,5.47
2023-04-20T22:06:33.436Z,4.93
2023-04-20T22:09:00.444Z,4.85
2023-04-20T22:11:28.027Z,4.97
2023-04-20T22:13:57.326Z,5.28
2023-04-20T22:16:24.517Z,5.30
2023-04-20T22:18:51.704Z,5.07
2023-04-20T22:21:18.741Z,4.60
2023-04-20T22:23:45.844Z,6.22
2023-04-20T22:26:12.965Z,5.18
2023-04-20T22:28:40.092Z,6.03
2023-04-20T22:31:07.179Z,4.80
2023-04-20T22:33:34.480Z,5.63
2023-04-20T22:36:01.549Z,6.03
2023-04-20T22:38:28.639Z,6.38
2023-04-20T22:40:55.691Z,6.32
2023-04-20T22:43:22.872Z,6.03
2023-04-20T22:45:49.949Z,5.85
2023-04-20T22:48:17.669Z,5.32
2023-04-20T22:50:44.733Z,5.63
2023-04-20T22:53:13.638Z,7.63
2023-04-20T22:55:42.014Z,6.22
2023-04-20T22:58:09.224Z,6.60
2023-04-20T23:00:36.324Z,6.13
2023-04-20T23:03:03.581Z,6.35
2023-04-20T23:05:30.796Z,6.68
2023-04-20T23:07:57.818Z,5.47
2023-04-20T23:10:28.839Z,4.88
2023-04-20T23:12:56.124Z,5.72
2023-04-20T23:15:23.240Z,6.18
2023-04-20T23:17:50.950Z,6.68
2023-04-20T23:20:18.143Z,5.10
2023-04-20T23:22:45.532Z,5.07
2023-04-20T23:25:12.631Z,6.30
2023-04-20T23:27:39.703Z,5.53
2023-04-20T23:30:07.474Z,5.10
2023-04-20T23:32:34.692Z,5.78
2023-04-20T23:35:01.957Z,5.68
2023-04-20T23:37:29.076Z,6.22
2023-04-20T23:39:56.166Z,5.68
2023-04-20T23:42:23.208Z,6.57
2023-04-20T23:44:50.461Z,7.32
2023-04-20T23:47:17.769Z,5.85
2023-04-20T23:49:44.792Z,6.32
2023-04-20T23:52:11.845Z,5.55
2023-04-20T23:54:38.941Z,5.53
2023-04-20T23:57:06.043Z,5.03
2023-04-20T23:59:34.564Z,6.30
